sensor_id;sensor_type;location;lat;lon;timestamp;P1;durP1;ratioP1;P2;durP2;ratioP2
21868;SDS011;11099;41.564;23.296;2023-04-03T00:01:45;2.03;;;1.15;;
21868;SDS011;11099;41.564;23.296;2023-04-03T00:04:10;1.70;;;1.35;;
21868;SDS011;11099;41.564;23.296;2023-04-03T00:06:35;4.05;;;1.30;;
21868;SDS011;11099;41.564;23.296;2023-04-03T00:09:01;2.90;;;1.52;;
21868;SDS011;11099;41.564;23.296;2023-04-03T00:11:26;1.80;;;1.30;;
21868;SDS011;11099;41.564;23.296;2023-04-03T00:13:53;1.55;;;1.20;;
21868;SDS011;11099;41.564;23.296;2023-04-03T00:16:18;6.93;;;0.98;;
21868;SDS011;11099;41.564;23.296;2023-04-03T00:18:45;1.45;;;0.88;;
21868;SDS011;11099;41.564;23.296;2023-04-03T00:21:17;2.08;;;0.93;;
21868;SDS011;11099;41.564;23.296;2023-04-03T00:23:48;1.67;;;1.38;;
21868;SDS011;11099;41.564;23.296;2023-04-03T00:26:15;1.27;;;1.17;;
21868;SDS011;11099;41.564;23.296;2023-04-03T00:28:41;1.83;;;1.15;;
21868;SDS011;11099;41.564;23.296;2023-04-03T00:31:06;1.38;;;0.90;;
21868;SDS011;11099;41.564;23.296;2023-04-03T00:33:31;1.85;;;0.90;;
21868;SDS011;11099;41.564;23.296;2023-04-03T00:35:57;4.13;;;1.00;;
21868;SDS011;11099;41.564;23.296;2023-04-03T00:38:22;0.73;;;0.73;;
21868;SDS011;11099;41.564;23.296;2023-04-03T00:40:49;0.90;;;0.90;;
21868;SDS011;11099;41.564;23.296;2023-04-03T00:43:20;1.20;;;1.10;;
21868;SDS011;11099;41.564;23.296;2023-04-03T00:45:51;1.00;;;0.90;;
21868;SDS011;11099;41.564;23.296;2023-04-03T00:48:27;1.42;;;1.20;;
21868;SDS011;11099;41.564;23.296;2023-04-03T00:50:54;1.60;;;1.00;;
21868;SDS011;11099;41.564;23.296;2023-04-03T00:53:25;1.85;;;1.10;;
21868;SDS011;11099;41.564;23.296;2023-04-03T00:55:51;1.70;;;0.90;;
21868;SDS011;11099;41.564;23.296;2023-04-03T00:58:19;1.30;;;1.20;;
21868;SDS011;11099;41.564;23.296;2023-04-03T01:00:46;1.90;;;1.10;;
21868;SDS011;11099;41.564;23.296;2023-04-03T01:03:13;1.17;;;1.00;;
21868;SDS011;11099;41.564;23.296;2023-04-03T01:05:43;1.60;;;0.90;;
21868;SDS011;11099;41.564;23.296;2023-04-03T01:08:13;2.78;;;1.10;;
21868;SDS011;11099;41.564;23.296;2023-04-03T01:10:39;2.90;;;1.13;;
21868;SDS011;11099;41.564;23.296;2023-04-03T01:13:22;1.25;;;0.73;;
21868;SDS011;11099;41.564;23.296;2023-04-03T01:15:48;3.17;;;1.10;;
21868;SDS011;11099;41.564;23.296;2023-04-03T01:18:13;2.05;;;1.10;;
21868;SDS011;11099;41.564;23.296;2023-04-03T01:25:40;2.08;;;1.20;;
21868;SDS011;11099;41.564;23.296;2023-04-03T01:28:06;1.95;;;1.00;;
21868;SDS011;11099;41.564;23.296;2023-04-03T01:30:36;1.83;;;1.15;;
21868;SDS011;11099;41.564;23.296;2023-04-03T01:33:04;3.22;;;1.10;;
21868;SDS011;11099;41.564;23.296;2023-04-03T01:35:31;1.25;;;1.15;;
21868;SDS011;11099;41.564;23.296;2023-04-03T01:37:56;2.95;;;1.30;;
21868;SDS011;11099;41.564;23.296;2023-04-03T01:40:21;2.88;;;1.27;;
21868;SDS011;11099;41.564;23.296;2023-04-03T01:42:47;2.28;;;1.52;;
21868;SDS011;11099;41.564;23.296;2023-04-03T01:45:12;3.45;;;1.60;;
21868;SDS011;11099;41.564;23.296;2023-04-03T01:47:37;4.15;;;1.63;;
21868;SDS011;11099;41.564;23.296;2023-04-03T01:50:03;2.55;;;1.73;;
21868;SDS011;11099;41.564;23.296;2023-04-03T01:52:28;2.30;;;1.73;;
21868;SDS011;11099;41.564;23.296;2023-04-03T01:54:55;2.72;;;1.50;;
21868;SDS011;11099;41.564;23.296;2023-04-03T01:57:20;1.73;;;1.45;;
21868;SDS011;11099;41.564;23.296;2023-04-03T01:59:45;2.42;;;2.00;;
21868;SDS011;11099;41.564;23.296;2023-04-03T02:02:11;2.13;;;1.48;;
21868;SDS011;11099;41.564;23.296;2023-04-03T02:04:37;2.33;;;1.52;;
21868;SDS011;11099;41.564;23.296;2023-04-03T02:07:02;10.30;;;1.83;;
21868;SDS011;11099;41.564;23.296;2023-04-03T02:09:28;2.80;;;1.38;;
21868;SDS011;11099;41.564;23.296;2023-04-03T02:11:53;2.28;;;1.60;;
21868;SDS011;11099;41.564;23.296;2023-04-03T02:14:18;3.00;;;1.58;;
21868;SDS011;11099;41.564;23.296;2023-04-03T02:16:44;2.05;;;1.58;;
21868;SDS011;11099;41.564;23.296;2023-04-03T02:19:10;3.67;;;1.67;;
21868;SDS011;11099;41.564;23.296;2023-04-03T02:21:38;2.87;;;1.50;;
21868;SDS011;11099;41.564;23.296;2023-04-03T02:24:05;3.65;;;1.52;;
21868;SDS011;11099;41.564;23.296;2023-04-03T02:26:30;9.10;;;1.40;;
21868;SDS011;11099;41.564;23.296;2023-04-03T02:28:58;1.70;;;1.00;;
21868;SDS011;11099;41.564;23.296;2023-04-03T02:31:28;5.40;;;1.42;;
21868;SDS011;11099;41.564;23.296;2023-04-03T02:33:53;1.77;;;1.13;;
21868;SDS011;11099;41.564;23.296;2023-04-03T02:36:19;2.13;;;1.10;;
21868;SDS011;11099;41.564;23.296;2023-04-03T02:38:45;4.05;;;1.35;;
21868;SDS011;11099;41.564;23.296;2023-04-03T02:41:11;3.15;;;1.40;;
21868;SDS011;11099;41.564;23.296;2023-04-03T02:43:37;4.82;;;1.30;;
21868;SDS011;11099;41.564;23.296;2023-04-03T02:46:02;3.17;;;1.40;;
21868;SDS011;11099;41.564;23.296;2023-04-03T02:48:28;4.30;;;1.10;;
21868;SDS011;11099;41.564;23.296;2023-04-03T02:50:54;3.10;;;1.20;;
21868;SDS011;11099;41.564;23.296;2023-04-03T02:53:19;3.65;;;1.58;;
21868;SDS011;11099;41.564;23.296;2023-04-03T02:55:45;4.30;;;1.30;;
21868;SDS011;11099;41.564;23.296;2023-04-03T02:58:10;2.40;;;1.13;;
21868;SDS011;11099;41.564;23.296;2023-04-03T03:00:36;2.55;;;1.20;;
21868;SDS011;11099;41.564;23.296;2023-04-03T03:03:01;2.60;;;1.20;;
21868;SDS011;11099;41.564;23.296;2023-04-03T03:05:27;4.68;;;1.15;;
21868;SDS011;11099;41.564;23.296;2023-04-03T03:07:53;4.22;;;1.42;;
21868;SDS011;11099;41.564;23.296;2023-04-03T03:10:18;1.38;;;1.20;;
21868;SDS011;11099;41.564;23.296;2023-04-03T03:12:44;2.88;;;1.08;;
21868;SDS011;11099;41.564;23.296;2023-04-03T03:15:09;1.27;;;1.00;;
21868;SDS011;11099;41.564;23.296;2023-04-03T03:17:35;1.10;;;1.00;;
21868;SDS011;11099;41.564;23.296;2023-04-03T03:20:01;3.35;;;2.55;;
21868;SDS011;11099;41.564;23.296;2023-04-03T03:22:27;1.75;;;1.23;;
21868;SDS011;11099;41.564;23.296;2023-04-03T03:24:53;2.33;;;1.30;;
21868;SDS011;11099;41.564;23.296;2023-04-03T03:27:20;1.13;;;1.05;;
21868;SDS011;11099;41.564;23.296;2023-04-03T03:29:45;2.22;;;1.42;;
21868;SDS011;11099;41.564;23.296;2023-04-03T03:32:11;1.38;;;1.27;;
21868;SDS011;11099;41.564;23.296;2023-04-03T03:34:36;1.98;;;1.10;;
21868;SDS011;11099;41.564;23.296;2023-04-03T03:37:02;2.20;;;1.80;;
21868;SDS011;11099;41.564;23.296;2023-04-03T03:39:27;3.00;;;1.70;;
21868;SDS011;11099;41.564;23.296;2023-04-03T03:41:53;3.15;;;1.63;;
21868;SDS011;11099;41.564;23.296;2023-04-03T03:44:18;1.60;;;1.30;;
21868;SDS011;11099;41.564;23.296;2023-04-03T03:46:44;3.05;;;1.75;;
21868;SDS011;11099;41.564;23.296;2023-04-03T03:49:09;5.03;;;2.15;;
21868;SDS011;11099;41.564;23.296;2023-04-03T03:51:36;3.22;;;2.92;;
21868;SDS011;11099;41.564;23.296;2023-04-03T03:54:01;6.32;;;4.35;;
21868;SDS011;11099;41.564;23.296;2023-04-03T03:56:26;2.97;;;1.80;;
21868;SDS011;11099;41.564;23.296;2023-04-03T03:58:52;3.42;;;1.92;;
21868;SDS011;11099;41.564;23.296;2023-04-03T04:01:17;3.70;;;3.03;;
21868;SDS011;11099;41.564;23.296;2023-04-03T04:03:43;6.60;;;3.22;;
21868;SDS011;11099;41.564;23.296;2023-04-03T04:06:08;4.47;;;3.38;;
21868;SDS011;11099;41.564;23.296;2023-04-03T04:08:33;10.30;;;4.95;;
21868;SDS011;11099;41.564;23.296;2023-04-03T04:10:59;12.98;;;5.88;;
21868;SDS011;11099;41.564;23.296;2023-04-03T04:13:24;7.68;;;5.10;;
21868;SDS011;11099;41.564;23.296;2023-04-03T04:15:50;5.57;;;3.38;;
21868;SDS011;11099;41.564;23.296;2023-04-03T04:18:15;8.57;;;3.50;;
21868;SDS011;11099;41.564;23.296;2023-04-03T04:20:41;7.22;;;2.53;;
21868;SDS011;11099;41.564;23.296;2023-04-03T04:23:06;5.30;;;1.98;;
21868;SDS011;11099;41.564;23.296;2023-04-03T04:25:32;3.95;;;1.83;;
21868;SDS011;11099;41.564;23.296;2023-04-03T04:27:57;3.00;;;1.45;;
21868;SDS011;11099;41.564;23.296;2023-04-03T04:30:23;3.28;;;1.48;;
21868;SDS011;11099;41.564;23.296;2023-04-03T04:32:48;1.90;;;1.67;;
21868;SDS011;11099;41.564;23.296;2023-04-03T04:35:13;8.15;;;1.73;;
21868;SDS011;11099;41.564;23.296;2023-04-03T04:37:39;2.10;;;1.50;;
21868;SDS011;11099;41.564;23.296;2023-04-03T04:40:04;1.40;;;1.20;;
21868;SDS011;11099;41.564;23.296;2023-04-03T04:42:30;6.40;;;1.52;;
21868;SDS011;11099;41.564;23.296;2023-04-03T04:44:55;2.10;;;1.50;;
21868;SDS011;11099;41.564;23.296;2023-04-03T04:47:21;2.55;;;1.33;;
21868;SDS011;11099;41.564;23.296;2023-04-03T04:49:46;3.55;;;1.33;;
21868;SDS011;11099;41.564;23.296;2023-04-03T04:52:12;7.10;;;1.30;;
21868;SDS011;11099;41.564;23.296;2023-04-03T04:54:44;3.35;;;1.92;;
21868;SDS011;11099;41.564;23.296;2023-04-03T04:57:12;1.80;;;1.50;;
21868;SDS011;11099;41.564;23.296;2023-04-03T04:59:42;2.55;;;1.65;;
21868;SDS011;11099;41.564;23.296;2023-04-03T05:02:10;3.78;;;1.50;;
21868;SDS011;11099;41.564;23.296;2023-04-03T05:04:37;4.00;;;1.50;;
21868;SDS011;11099;41.564;23.296;2023-04-03T05:07:02;4.43;;;1.35;;
21868;SDS011;11099;41.564;23.296;2023-04-03T05:09:27;10.07;;;1.48;;
21868;SDS011;11099;41.564;23.296;2023-04-03T05:11:53;2.25;;;1.55;;
21868;SDS011;11099;41.564;23.296;2023-04-03T05:14:19;2.58;;;1.45;;
21868;SDS011;11099;41.564;23.296;2023-04-03T05:16:44;1.83;;;1.63;;
21868;SDS011;11099;41.564;23.296;2023-04-03T05:19:09;3.00;;;1.42;;
21868;SDS011;11099;41.564;23.296;2023-04-03T05:21:35;4.18;;;1.63;;
21868;SDS011;11099;41.564;23.296;2023-04-03T05:24:00;3.90;;;1.40;;
21868;SDS011;11099;41.564;23.296;2023-04-03T05:26:29;5.22;;;1.52;;
21868;SDS011;11099;41.564;23.296;2023-04-03T05:28:55;6.55;;;2.17;;
21868;SDS011;11099;41.564;23.296;2023-04-03T05:31:20;5.20;;;1.70;;
21868;SDS011;11099;41.564;23.296;2023-04-03T05:33:45;4.35;;;1.80;;
21868;SDS011;11099;41.564;23.296;2023-04-03T05:36:12;5.22;;;1.42;;
21868;SDS011;11099;41.564;23.296;2023-04-03T05:38:37;2.20;;;1.58;;
21868;SDS011;11099;41.564;23.296;2023-04-03T05:41:03;4.68;;;1.75;;
21868;SDS011;11099;41.564;23.296;2023-04-03T05:43:28;2.33;;;1.58;;
21868;SDS011;11099;41.564;23.296;2023-04-03T05:45:55;6.22;;;1.60;;
21868;SDS011;11099;41.564;23.296;2023-04-03T05:48:20;3.10;;;1.50;;
21868;SDS011;11099;41.564;23.296;2023-04-03T05:50:46;3.63;;;1.63;;
21868;SDS011;11099;41.564;23.296;2023-04-03T05:53:30;2.95;;;1.38;;
21868;SDS011;11099;41.564;23.296;2023-04-03T05:55:56;3.53;;;1.58;;
21868;SDS011;11099;41.564;23.296;2023-04-03T05:58:22;8.93;;;1.75;;
21868;SDS011;11099;41.564;23.296;2023-04-03T06:00:47;1.85;;;1.40;;
21868;SDS011;11099;41.564;23.296;2023-04-03T06:03:13;2.20;;;1.67;;
21868;SDS011;11099;41.564;23.296;2023-04-03T06:05:38;2.17;;;1.95;;
21868;SDS011;11099;41.564;23.296;2023-04-03T06:08:04;2.88;;;2.03;;
21868;SDS011;11099;41.564;23.296;2023-04-03T06:10:30;6.40;;;2.50;;
21868;SDS011;11099;41.564;23.296;2023-04-03T06:12:56;4.18;;;3.78;;
21868;SDS011;11099;41.564;23.296;2023-04-03T06:15:21;11.63;;;5.07;;
21868;SDS011;11099;41.564;23.296;2023-04-03T06:17:47;9.48;;;3.92;;
21868;SDS011;11099;41.564;23.296;2023-04-03T06:20:12;4.75;;;4.05;;
21868;SDS011;11099;41.564;23.296;2023-04-03T06:22:38;6.28;;;3.60;;
21868;SDS011;11099;41.564;23.296;2023-04-03T06:25:03;16.38;;;3.40;;
21868;SDS011;11099;41.564;23.296;2023-04-03T06:27:30;6.72;;;4.05;;
21868;SDS011;11099;41.564;23.296;2023-04-03T06:29:55;5.22;;;4.07;;
21868;SDS011;11099;41.564;23.296;2023-04-03T06:32:21;6.20;;;3.92;;
21868;SDS011;11099;41.564;23.296;2023-04-03T06:34:53;6.75;;;2.58;;
21868;SDS011;11099;41.564;23.296;2023-04-03T06:37:22;2.20;;;2.00;;
21868;SDS011;11099;41.564;23.296;2023-04-03T06:39:52;3.28;;;2.10;;
21868;SDS011;11099;41.564;23.296;2023-04-03T06:42:18;5.15;;;1.55;;
21868;SDS011;11099;41.564;23.296;2023-04-03T06:44:46;3.00;;;1.55;;
21868;SDS011;11099;41.564;23.296;2023-04-03T06:47:14;4.97;;;1.70;;
21868;SDS011;11099;41.564;23.296;2023-04-03T06:49:40;2.42;;;1.73;;
21868;SDS011;11099;41.564;23.296;2023-04-03T06:52:07;2.80;;;1.70;;
21868;SDS011;11099;41.564;23.296;2023-04-03T06:54:33;7.95;;;2.08;;
21868;SDS011;11099;41.564;23.296;2023-04-03T06:56:58;11.05;;;2.67;;
21868;SDS011;11099;41.564;23.296;2023-04-03T06:59:23;5.82;;;2.28;;
21868;SDS011;11099;41.564;23.296;2023-04-03T07:01:49;7.47;;;2.03;;
21868;SDS011;11099;41.564;23.296;2023-04-03T07:04:15;3.63;;;2.00;;
21868;SDS011;11099;41.564;23.296;2023-04-03T07:06:40;7.25;;;2.05;;
21868;SDS011;11099;41.564;23.296;2023-04-03T07:09:07;3.92;;;2.30;;
21868;SDS011;11099;41.564;23.296;2023-04-03T07:11:32;10.98;;;2.28;;
21868;SDS011;11099;41.564;23.296;2023-04-03T07:13:58;2.35;;;1.83;;
21868;SDS011;11099;41.564;23.296;2023-04-03T07:16:23;4.03;;;2.25;;
21868;SDS011;11099;41.564;23.296;2023-04-03T07:18:48;5.28;;;1.90;;
21868;SDS011;11099;41.564;23.296;2023-04-03T07:21:14;5.60;;;2.00;;
21868;SDS011;11099;41.564;23.296;2023-04-03T07:23:39;4.82;;;1.92;;
21868;SDS011;11099;41.564;23.296;2023-04-03T07:26:05;8.88;;;2.30;;
21868;SDS011;11099;41.564;23.296;2023-04-03T07:28:30;6.68;;;2.13;;
21868;SDS011;11099;41.564;23.296;2023-04-03T07:31:03;6.35;;;1.95;;
21868;SDS011;11099;41.564;23.296;2023-04-03T07:33:29;4.72;;;2.20;;
21868;SDS011;11099;41.564;23.296;2023-04-03T07:35:56;7.55;;;2.20;;
21868;SDS011;11099;41.564;23.296;2023-04-03T07:38:21;7.45;;;2.67;;
21868;SDS011;11099;41.564;23.296;2023-04-03T07:40:47;5.30;;;2.70;;
21868;SDS011;11099;41.564;23.296;2023-04-03T07:43:14;4.22;;;2.17;;
21868;SDS011;11099;41.564;23.296;2023-04-03T07:45:39;8.25;;;2.65;;
21868;SDS011;11099;41.564;23.296;2023-04-03T07:48:05;5.07;;;2.40;;
21868;SDS011;11099;41.564;23.296;2023-04-03T07:50:30;3.38;;;2.00;;
21868;SDS011;11099;41.564;23.296;2023-04-03T07:52:57;5.47;;;2.00;;
21868;SDS011;11099;41.564;23.296;2023-04-03T07:55:23;6.75;;;2.30;;
21868;SDS011;11099;41.564;23.296;2023-04-03T07:57:48;9.70;;;2.30;;
21868;SDS011;11099;41.564;23.296;2023-04-03T08:00:13;4.40;;;2.70;;
21868;SDS011;11099;41.564;23.296;2023-04-03T08:02:39;6.03;;;3.00;;
21868;SDS011;11099;41.564;23.296;2023-04-03T08:05:05;9.23;;;2.65;;
21868;SDS011;11099;41.564;23.296;2023-04-03T08:07:30;7.47;;;2.88;;
21868;SDS011;11099;41.564;23.296;2023-04-03T08:09:55;7.60;;;2.80;;
21868;SDS011;11099;41.564;23.296;2023-04-03T08:12:22;3.70;;;2.70;;
21868;SDS011;11099;41.564;23.296;2023-04-03T08:14:47;6.93;;;3.40;;
21868;SDS011;11099;41.564;23.296;2023-04-03T08:17:12;3.90;;;2.75;;
21868;SDS011;11099;41.564;23.296;2023-04-03T08:19:38;9.57;;;3.55;;
21868;SDS011;11099;41.564;23.296;2023-04-03T08:22:03;7.82;;;3.05;;
21868;SDS011;11099;41.564;23.296;2023-04-03T08:24:30;5.43;;;2.67;;
21868;SDS011;11099;41.564;23.296;2023-04-03T08:26:56;5.60;;;2.90;;
21868;SDS011;11099;41.564;23.296;2023-04-03T08:29:21;12.57;;;9.05;;
21868;SDS011;11099;41.564;23.296;2023-04-03T08:31:46;9.75;;;7.30;;
21868;SDS011;11099;41.564;23.296;2023-04-03T08:34:12;11.45;;;6.95;;
21868;SDS011;11099;41.564;23.296;2023-04-03T08:36:38;10.93;;;7.95;;
21868;SDS011;11099;41.564;23.296;2023-04-03T08:39:03;17.02;;;9.90;;
21868;SDS011;11099;41.564;23.296;2023-04-03T08:46:38;12.75;;;8.00;;
21868;SDS011;11099;41.564;23.296;2023-04-03T08:51:31;7.78;;;4.78;;
21868;SDS011;11099;41.564;23.296;2023-04-03T08:56:23;10.80;;;7.00;;
21868;SDS011;11099;41.564;23.296;2023-04-03T08:58:52;19.15;;;10.15;;
21868;SDS011;11099;41.564;23.296;2023-04-03T09:01:24;11.25;;;7.30;;
21868;SDS011;11099;41.564;23.296;2023-04-03T09:04:00;14.25;;;10.02;;
21868;SDS011;11099;41.564;23.296;2023-04-03T09:06:31;7.15;;;5.70;;
21868;SDS011;11099;41.564;23.296;2023-04-03T09:17:14;10.93;;;7.75;;
21868;SDS011;11099;41.564;23.296;2023-04-03T09:22:32;23.05;;;13.20;;
21868;SDS011;11099;41.564;23.296;2023-04-03T09:25:01;23.27;;;13.20;;
21868;SDS011;11099;41.564;23.296;2023-04-03T09:27:28;14.88;;;9.20;;
21868;SDS011;11099;41.564;23.296;2023-04-03T09:29:55;36.72;;;23.15;;
21868;SDS011;11099;41.564;23.296;2023-04-03T09:32:26;36.05;;;19.27;;
21868;SDS011;11099;41.564;23.296;2023-04-03T09:34:53;16.73;;;10.98;;
21868;SDS011;11099;41.564;23.296;2023-04-03T09:37:37;11.82;;;6.60;;
21868;SDS011;11099;41.564;23.296;2023-04-03T09:40:43;9.65;;;6.10;;
21868;SDS011;11099;41.564;23.296;2023-04-03T09:43:26;9.10;;;5.10;;
21868;SDS011;11099;41.564;23.296;2023-04-03T09:45:53;10.23;;;5.45;;
21868;SDS011;11099;41.564;23.296;2023-04-03T09:48:21;11.57;;;6.68;;
21868;SDS011;11099;41.564;23.296;2023-04-03T09:56:21;17.38;;;11.40;;
21868;SDS011;11099;41.564;23.296;2023-04-03T10:01:35;12.10;;;6.63;;
21868;SDS011;11099;41.564;23.296;2023-04-03T10:04:04;11.77;;;6.80;;
21868;SDS011;11099;41.564;23.296;2023-04-03T10:06:35;11.77;;;8.57;;
21868;SDS011;11099;41.564;23.296;2023-04-03T10:09:15;10.55;;;9.00;;
21868;SDS011;11099;41.564;23.296;2023-04-03T10:12:25;8.40;;;6.80;;
21868;SDS011;11099;41.564;23.296;2023-04-03T10:22:21;8.75;;;5.93;;
21868;SDS011;11099;41.564;23.296;2023-04-03T10:30:19;12.68;;;5.05;;
21868;SDS011;11099;41.564;23.296;2023-04-03T10:32:53;8.57;;;5.50;;
21868;SDS011;11099;41.564;23.296;2023-04-03T10:40:52;26.88;;;20.65;;
21868;SDS011;11099;41.564;23.296;2023-04-03T10:43:38;41.97;;;31.25;;
21868;SDS011;11099;41.564;23.296;2023-04-03T10:48:53;38.55;;;28.45;;
21868;SDS011;11099;41.564;23.296;2023-04-03T10:51:36;40.55;;;29.58;;
21868;SDS011;11099;41.564;23.296;2023-04-03T10:54:26;25.90;;;18.88;;
21868;SDS011;11099;41.564;23.296;2023-04-03T10:56:54;21.10;;;16.27;;
21868;SDS011;11099;41.564;23.296;2023-04-03T10:59:38;18.83;;;14.63;;
21868;SDS011;11099;41.564;23.296;2023-04-03T11:02:07;21.67;;;14.88;;
21868;SDS011;11099;41.564;23.296;2023-04-03T11:04:34;19.67;;;14.00;;
21868;SDS011;11099;41.564;23.296;2023-04-03T11:09:26;23.02;;;15.43;;
21868;SDS011;11099;41.564;23.296;2023-04-03T11:11:57;19.52;;;15.10;;
21868;SDS011;11099;41.564;23.296;2023-04-03T11:22:25;17.55;;;13.45;;
21868;SDS011;11099;41.564;23.296;2023-04-03T11:24:57;20.58;;;14.98;;
21868;SDS011;11099;41.564;23.296;2023-04-03T11:27:37;21.13;;;13.63;;
21868;SDS011;11099;41.564;23.296;2023-04-03T11:30:11;14.90;;;12.25;;
21868;SDS011;11099;41.564;23.296;2023-04-03T11:35:11;22.15;;;13.68;;
21868;SDS011;11099;41.564;23.296;2023-04-03T11:37:45;12.43;;;10.70;;
21868;SDS011;11099;41.564;23.296;2023-04-03T11:40:21;18.08;;;12.98;;
21868;SDS011;11099;41.564;23.296;2023-04-03T11:43:38;15.07;;;11.65;;
21868;SDS011;11099;41.564;23.296;2023-04-03T11:49:00;19.10;;;12.90;;
21868;SDS011;11099;41.564;23.296;2023-04-03T11:53:48;13.50;;;9.73;;
21868;SDS011;11099;41.564;23.296;2023-04-03T11:59:21;11.45;;;9.45;;
21868;SDS011;11099;41.564;23.296;2023-04-03T12:04:17;9.10;;;8.20;;
21868;SDS011;11099;41.564;23.296;2023-04-03T12:09:33;11.77;;;7.55;;
21868;SDS011;11099;41.564;23.296;2023-04-03T12:12:27;9.38;;;7.15;;
21868;SDS011;11099;41.564;23.296;2023-04-03T12:14:55;8.60;;;7.35;;
21868;SDS011;11099;41.564;23.296;2023-04-03T12:17:25;6.85;;;5.95;;
21868;SDS011;11099;41.564;23.296;2023-04-03T12:19:57;7.50;;;6.80;;
21868;SDS011;11099;41.564;23.296;2023-04-03T12:22:23;9.95;;;5.53;;
21868;SDS011;11099;41.564;23.296;2023-04-03T12:24:50;7.35;;;5.82;;
21868;SDS011;11099;41.564;23.296;2023-04-03T12:27:26;8.65;;;6.10;;
21868;SDS011;11099;41.564;23.296;2023-04-03T12:29:54;7.90;;;5.63;;
21868;SDS011;11099;41.564;23.296;2023-04-03T12:47:49;5.97;;;5.03;;
21868;SDS011;11099;41.564;23.296;2023-04-03T12:50:19;7.75;;;6.22;;
21868;SDS011;11099;41.564;23.296;2023-04-03T12:52:52;6.35;;;5.68;;
21868;SDS011;11099;41.564;23.296;2023-04-03T12:55:21;6.85;;;5.53;;
21868;SDS011;11099;41.564;23.296;2023-04-03T12:57:49;8.18;;;6.47;;
21868;SDS011;11099;41.564;23.296;2023-04-03T13:00:50;9.63;;;7.65;;
21868;SDS011;11099;41.564;23.296;2023-04-03T13:03:21;10.02;;;7.25;;
21868;SDS011;11099;41.564;23.296;2023-04-03T13:05:50;8.32;;;6.25;;
21868;SDS011;11099;41.564;23.296;2023-04-03T13:08:16;9.90;;;6.05;;
21868;SDS011;11099;41.564;23.296;2023-04-03T13:13:36;8.52;;;7.70;;
21868;SDS011;11099;41.564;23.296;2023-04-03T13:16:10;7.93;;;7.13;;
21868;SDS011;11099;41.564;23.296;2023-04-03T13:18:36;8.27;;;6.90;;
21868;SDS011;11099;41.564;23.296;2023-04-03T13:21:06;10.98;;;6.95;;
21868;SDS011;11099;41.564;23.296;2023-04-03T13:23:33;7.22;;;5.97;;
21868;SDS011;11099;41.564;23.296;2023-04-03T13:26:00;8.50;;;6.50;;
21868;SDS011;11099;41.564;23.296;2023-04-03T13:28:28;8.83;;;6.83;;
21868;SDS011;11099;41.564;23.296;2023-04-03T13:33:27;7.38;;;5.57;;
21868;SDS011;11099;41.564;23.296;2023-04-03T13:35:57;7.97;;;5.47;;
21868;SDS011;11099;41.564;23.296;2023-04-03T13:38:24;6.47;;;5.35;;
21868;SDS011;11099;41.564;23.296;2023-04-03T13:40:51;7.00;;;5.97;;
21868;SDS011;11099;41.564;23.296;2023-04-03T13:43:18;6.70;;;5.75;;
21868;SDS011;11099;41.564;23.296;2023-04-03T13:46:01;7.85;;;6.03;;
21868;SDS011;11099;41.564;23.296;2023-04-03T13:48:34;8.63;;;6.15;;
21868;SDS011;11099;41.564;23.296;2023-04-03T13:51:01;9.55;;;6.28;;
21868;SDS011;11099;41.564;23.296;2023-04-03T13:53:27;6.53;;;5.78;;
21868;SDS011;11099;41.564;23.296;2023-04-03T13:58:23;7.05;;;5.78;;
21868;SDS011;11099;41.564;23.296;2023-04-03T14:00:54;6.55;;;5.85;;
21868;SDS011;11099;41.564;23.296;2023-04-03T14:03:29;6.93;;;6.18;;
21868;SDS011;11099;41.564;23.296;2023-04-03T14:05:55;6.95;;;6.35;;
21868;SDS011;11099;41.564;23.296;2023-04-03T14:08:22;8.32;;;6.35;;
21868;SDS011;11099;41.564;23.296;2023-04-03T14:10:53;8.23;;;7.32;;
21868;SDS011;11099;41.564;23.296;2023-04-03T14:13:21;7.03;;;6.43;;
21868;SDS011;11099;41.564;23.296;2023-04-03T14:15:48;8.00;;;6.03;;
21868;SDS011;11099;41.564;23.296;2023-04-03T14:18:17;6.53;;;5.85;;
21868;SDS011;11099;41.564;23.296;2023-04-03T14:20:44;9.15;;;5.95;;
21868;SDS011;11099;41.564;23.296;2023-04-03T14:23:11;6.20;;;5.60;;
21868;SDS011;11099;41.564;23.296;2023-04-03T14:28:20;7.28;;;6.53;;
21868;SDS011;11099;41.564;23.296;2023-04-03T14:30:52;10.02;;;7.18;;
21868;SDS011;11099;41.564;23.296;2023-04-03T14:33:20;6.60;;;6.00;;
21868;SDS011;11099;41.564;23.296;2023-04-03T14:35:47;6.65;;;5.70;;
21868;SDS011;11099;41.564;23.296;2023-04-03T14:38:21;6.50;;;5.85;;
21868;SDS011;11099;41.564;23.296;2023-04-03T14:40:46;7.95;;;6.00;;
21868;SDS011;11099;41.564;23.296;2023-04-03T14:43:12;9.30;;;6.43;;
21868;SDS011;11099;41.564;23.296;2023-04-03T14:45:37;7.93;;;7.13;;
21868;SDS011;11099;41.564;23.296;2023-04-03T14:48:03;12.55;;;9.93;;
21868;SDS011;11099;41.564;23.296;2023-04-03T14:50:29;11.00;;;6.80;;
21868;SDS011;11099;41.564;23.296;2023-04-03T14:52:55;7.13;;;6.43;;
21868;SDS011;11099;41.564;23.296;2023-04-03T14:55:22;9.32;;;7.30;;
21868;SDS011;11099;41.564;23.296;2023-04-03T14:57:48;11.93;;;10.68;;
21868;SDS011;11099;41.564;23.296;2023-04-03T15:00:18;12.82;;;10.07;;
21868;SDS011;11099;41.564;23.296;2023-04-03T15:02:43;10.52;;;8.95;;
21868;SDS011;11099;41.564;23.296;2023-04-03T15:05:10;13.25;;;11.43;;
21868;SDS011;11099;41.564;23.296;2023-04-03T15:07:39;12.80;;;9.48;;
21868;SDS011;11099;41.564;23.296;2023-04-03T15:12:40;12.63;;;8.38;;
21868;SDS011;11099;41.564;23.296;2023-04-03T15:15:06;7.72;;;6.60;;
21868;SDS011;11099;41.564;23.296;2023-04-03T15:17:31;7.40;;;6.60;;
21868;SDS011;11099;41.564;23.296;2023-04-03T15:19:57;8.30;;;7.50;;
21868;SDS011;11099;41.564;23.296;2023-04-03T15:22:23;17.70;;;13.07;;
21868;SDS011;11099;41.564;23.296;2023-04-03T15:24:48;14.77;;;12.23;;
21868;SDS011;11099;41.564;23.296;2023-04-03T15:27:14;10.45;;;9.32;;
21868;SDS011;11099;41.564;23.296;2023-04-03T15:29:41;8.70;;;6.82;;
21868;SDS011;11099;41.564;23.296;2023-04-03T15:32:07;8.98;;;8.05;;
21868;SDS011;11099;41.564;23.296;2023-04-03T15:34:33;11.65;;;7.68;;
21868;SDS011;11099;41.564;23.296;2023-04-03T15:36:59;8.38;;;7.53;;
21868;SDS011;11099;41.564;23.296;2023-04-03T15:39:25;12.65;;;9.27;;
21868;SDS011;11099;41.564;23.296;2023-04-03T15:41:50;9.40;;;8.50;;
21868;SDS011;11099;41.564;23.296;2023-04-03T15:44:17;9.93;;;8.93;;
21868;SDS011;11099;41.564;23.296;2023-04-03T15:46:45;11.27;;;9.30;;
21868;SDS011;11099;41.564;23.296;2023-04-03T15:49:11;10.40;;;9.32;;
21868;SDS011;11099;41.564;23.296;2023-04-03T15:51:36;12.02;;;10.35;;
21868;SDS011;11099;41.564;23.296;2023-04-03T15:54:02;14.82;;;10.13;;
21868;SDS011;11099;41.564;23.296;2023-04-03T15:56:27;12.15;;;10.10;;
21868;SDS011;11099;41.564;23.296;2023-04-03T15:58:52;33.95;;;24.40;;
21868;SDS011;11099;41.564;23.296;2023-04-03T16:01:18;23.10;;;19.73;;
21868;SDS011;11099;41.564;23.296;2023-04-03T16:03:43;15.40;;;11.48;;
21868;SDS011;11099;41.564;23.296;2023-04-03T16:06:16;11.80;;;10.57;;
21868;SDS011;11099;41.564;23.296;2023-04-03T16:08:43;25.60;;;21.08;;
21868;SDS011;11099;41.564;23.296;2023-04-03T16:11:09;16.92;;;15.13;;
21868;SDS011;11099;41.564;23.296;2023-04-03T16:13:34;12.73;;;11.23;;
21868;SDS011;11099;41.564;23.296;2023-04-03T16:16:00;12.05;;;10.40;;
21868;SDS011;11099;41.564;23.296;2023-04-03T16:18:26;10.68;;;8.68;;
21868;SDS011;11099;41.564;23.296;2023-04-03T16:20:52;9.75;;;8.80;;
21868;SDS011;11099;41.564;23.296;2023-04-03T16:23:17;11.02;;;9.82;;